Angleton, TX (77515)

1:35 AM CST on February 27, 2017 (GMT -0600)
Angleton | | Change Station

Elev 0 ft 29.17 °N, 95.43 °W | Updated 3 minutes ago

Overcast
Overcast
69.1 °F
Feels Like 69.1 °F
N
1.2
Wind Variable Wind from SSW
Gusts 4.3 mph

Today
High -- | Low -- °F
--% Chance of Precip.
Yesterday
High -- | Low -- °F
Precip. -- in
Pressure 29.91 in
Visibility 10.0 miles
Clouds Overcast 900 ft
Dew Point 64 °F
Humidity 83%
Rainfall 0.00 in
Snow Depth Not available.
6:48 AM 6:20 PM
New Moon, 1% visible
SPECI KLBX 270732Z AUTO 16013KT 10SM OVC009 22/21 A2991 RMK AO2 T02220206
Pressure 29.91 in
Visibility 10.0 miles
Clouds Overcast 900 ft
Dew Point 64 °F
Humidity 83%
Rainfall 0.00 in
Snow Depth Not available.
6:48 AM 6:20 PM
New Moon, 1% visible
SPECI KLBX 270732Z AUTO 16013KT 10SM OVC009 22/21 A2991 RMK AO2 T02220206

Get Your Daily Forecast Email!

Thanks for signing up!

Be on the lookout for a verification email in your inbox.

You'll start receiving the daily forecast at 8 AM.

×

10-Day Weather Forecast

Almanac

Astronomy

Feb. 27, 2017 Rise Set
Actual Time
Civil Twilight
Nautical Twilight
Astronomical Twilight
Moon
Length of Visible Light
Length of Day
Tomorrow will be .
, % of the Moon is Illuminated

Today's Extremes

State Highs State Lows

Community

WunderPhotos

Upload Photos

1,962,540 photos uploaded!

WunderBlog® & News

Nearby

Air Quality

  Air Quality AQ Index Pollutant
Not available.

Snow Depth

Station Depth Elevation

Earthquake Activity

City Distance Mag. Time & Date
Minimum magnitude displayed is 2.5.

Coastal Water Temperatures

Place Temperature

Stations

Nearby Weather Stations

Station Location Temp. Windchill Dew Point Humidity Wind Precip. Elev Updated Type
                   

Watches & Warnings

There are currently no watches in effect.